sensor_id;sensor_type;location;lat;lon;timestamp;pressure;altitude;pressure_sealevel;temperature
15544;BMP180;7873;52.230;12.856;2022-07-23T00:01:20;101002.25;;;26.33
15544;BMP180;7873;52.230;12.856;2022-07-23T00:03:46;100998.72;;;26.33
15544;BMP180;7873;52.230;12.856;2022-07-23T00:06:13;100992.47;;;26.32
15544;BMP180;7873;52.230;12.856;2022-07-23T00:08:40;100997.88;;;26.32
15544;BMP180;7873;52.230;12.856;2022-07-23T00:11:07;100998.91;;;26.31
15544;BMP180;7873;52.230;12.856;2022-07-23T00:13:34;101008.03;;;26.30
15544;BMP180;7873;52.230;12.856;2022-07-23T00:16:01;101000.13;;;26.29
15544;BMP180;7873;52.230;12.856;2022-07-23T00:18:29;100980.41;;;26.28
15544;BMP180;7873;52.230;12.856;2022-07-23T00:20:55;100985.16;;;26.26
15544;BMP180;7873;52.230;12.856;2022-07-23T00:23:22;100982.63;;;26.25
15544;BMP180;7873;52.230;12.856;2022-07-23T00:25:50;100990.75;;;26.25
15544;BMP180;7873;52.230;12.856;2022-07-23T00:28:18;100991.59;;;26.25
15544;BMP180;7873;52.230;12.856;2022-07-23T00:30:44;100990.56;;;26.26
15544;BMP180;7873;52.230;12.856;2022-07-23T00:33:11;100988.69;;;26.27
15544;BMP180;7873;52.230;12.856;2022-07-23T00:35:40;100997.63;;;26.27
15544;BMP180;7873;52.230;12.856;2022-07-23T00:38:08;101004.06;;;26.26
15544;BMP180;7873;52.230;12.856;2022-07-23T00:40:36;101002.19;;;26.27
15544;BMP180;7873;52.230;12.856;2022-07-23T00:43:04;101000.50;;;26.26
15544;BMP180;7873;52.230;12.856;2022-07-23T00:45:31;100994.28;;;26.25
15544;BMP180;7873;52.230;12.856;2022-07-23T00:47:58;100988.25;;;26.23
15544;BMP180;7873;52.230;12.856;2022-07-23T00:50:25;100988.59;;;26.20
15544;BMP180;7873;52.230;12.856;2022-07-23T00:52:53;100993.19;;;26.20
15544;BMP180;7873;52.230;12.856;2022-07-23T01:00:14;100987.31;;;26.16
15544;BMP180;7873;52.230;12.856;2022-07-23T01:02:42;100986.88;;;26.13
15544;BMP180;7873;52.230;12.856;2022-07-23T01:05:09;100988.72;;;26.12
15544;BMP180;7873;52.230;12.856;2022-07-23T01:07:36;100979.81;;;26.12
15544;BMP180;7873;52.230;12.856;2022-07-23T01:10:06;100971.72;;;26.12
15544;BMP180;7873;52.230;12.856;2022-07-23T01:12:53;100972.53;;;26.12
15544;BMP180;7873;52.230;12.856;2022-07-23T01:15:21;100969.03;;;26.12
15544;BMP180;7873;52.230;12.856;2022-07-23T01:17:47;100966.31;;;26.12
15544;BMP180;7873;52.230;12.856;2022-07-23T01:20:14;100964.66;;;26.11
15544;BMP180;7873;52.230;12.856;2022-07-23T01:22:43;100958.41;;;26.10
15544;BMP180;7873;52.230;12.856;2022-07-23T01:25:10;100962.13;;;26.09
15544;BMP180;7873;52.230;12.856;2022-07-23T01:27:36;100969.19;;;26.10
15544;BMP180;7873;52.230;12.856;2022-07-23T01:30:04;100965.00;;;26.08
15544;BMP180;7873;52.230;12.856;2022-07-23T01:32:31;100963.16;;;26.08
15544;BMP180;7873;52.230;12.856;2022-07-23T01:34:58;100961.50;;;26.07
15544;BMP180;7873;52.230;12.856;2022-07-23T01:37:24;100958.78;;;26.07
15544;BMP180;7873;52.230;12.856;2022-07-23T01:39:52;100957.13;;;26.06
15544;BMP180;7873;52.230;12.856;2022-07-23T01:42:19;100948.16;;;26.06
15544;BMP180;7873;52.230;12.856;2022-07-23T01:44:46;100957.94;;;26.07
15544;BMP180;7873;52.230;12.856;2022-07-23T01:47:12;100948.38;;;26.04
15544;BMP180;7873;52.230;12.856;2022-07-23T01:49:39;100934.88;;;26.04
15544;BMP180;7873;52.230;12.856;2022-07-23T01:52:06;100946.88;;;26.02
15544;BMP180;7873;52.230;12.856;2022-07-23T01:54:37;100928.38;;;25.99
15544;BMP180;7873;52.230;12.856;2022-07-23T01:57:06;100930.91;;;26.00
15544;BMP180;7873;52.230;12.856;2022-07-23T01:59:34;100944.19;;;26.02
15544;BMP180;7873;52.230;12.856;2022-07-23T02:02:00;100928.19;;;26.00
15544;BMP180;7873;52.230;12.856;2022-07-23T02:04:28;100930.22;;;25.98
15544;BMP180;7873;52.230;12.856;2022-07-23T02:06:55;100928.56;;;25.97
15544;BMP180;7873;52.230;12.856;2022-07-23T02:09:22;100940.38;;;25.96
15544;BMP180;7873;52.230;12.856;2022-07-23T02:11:49;100931.25;;;25.97
15544;BMP180;7873;52.230;12.856;2022-07-23T02:14:17;100947.28;;;25.99
15544;BMP180;7873;52.230;12.856;2022-07-23T02:16:43;100940.19;;;25.98
15544;BMP180;7873;52.230;12.856;2022-07-23T02:19:10;100940.19;;;25.98
15544;BMP180;7873;52.230;12.856;2022-07-23T02:21:37;100946.63;;;25.97
15544;BMP180;7873;52.230;12.856;2022-07-23T02:24:04;100937.03;;;25.94
15544;BMP180;7873;52.230;12.856;2022-07-23T02:26:31;100946.16;;;25.93
15544;BMP180;7873;52.230;12.856;2022-07-23T02:29:00;100939.09;;;25.92
15544;BMP180;7873;52.230;12.856;2022-07-23T02:31:29;100936.41;;;25.92
15544;BMP180;7873;52.230;12.856;2022-07-23T02:33:55;100943.84;;;25.90
15544;BMP180;7873;52.230;12.856;2022-07-23T02:36:22;100941.16;;;25.90
15544;BMP180;7873;52.230;12.856;2022-07-23T02:38:49;100935.75;;;25.90
15544;BMP180;7873;52.230;12.856;2022-07-23T02:41:16;100916.69;;;25.92
15544;BMP180;7873;52.230;12.856;2022-07-23T02:43:42;100922.09;;;25.92
15544;BMP180;7873;52.230;12.856;2022-07-23T02:46:09;100919.38;;;25.92
15544;BMP180;7873;52.230;12.856;2022-07-23T02:48:37;100930.34;;;25.90
15544;BMP180;7873;52.230;12.856;2022-07-23T02:51:04;100932.25;;;25.90
15544;BMP180;7873;52.230;12.856;2022-07-23T02:53:30;100928.06;;;25.87
15544;BMP180;7873;52.230;12.856;2022-07-23T02:55:57;100929.06;;;25.86
15544;BMP180;7873;52.230;12.856;2022-07-23T02:58:24;100932.81;;;25.85
15544;BMP180;7873;52.230;12.856;2022-07-23T03:00:52;100945.66;;;25.83
15544;BMP180;7873;52.230;12.856;2022-07-23T03:03:19;100960.59;;;25.86
15544;BMP180;7873;52.230;12.856;2022-07-23T03:05:47;100977.63;;;25.86
15544;BMP180;7873;52.230;12.856;2022-07-23T03:08:13;100977.63;;;25.86
15544;BMP180;7873;52.230;12.856;2022-07-23T03:10:40;100983.22;;;25.85
15544;BMP180;7873;52.230;12.856;2022-07-23T03:13:07;101006.69;;;25.84
15544;BMP180;7873;52.230;12.856;2022-07-23T03:15:34;101038.69;;;25.87
15544;BMP180;7873;52.230;12.856;2022-07-23T03:18:00;101068.34;;;25.87
15544;BMP180;7873;52.230;12.856;2022-07-23T03:20:27;101066.69;;;25.86
15544;BMP180;7873;52.230;12.856;2022-07-23T03:22:55;101027.03;;;25.87
15544;BMP180;7873;52.230;12.856;2022-07-23T03:25:22;101014.00;;;25.90
15544;BMP180;7873;52.230;12.856;2022-07-23T03:27:48;101039.53;;;25.88
15544;BMP180;7873;52.230;12.856;2022-07-23T03:30:15;101005.66;;;25.85
15544;BMP180;7873;52.230;12.856;2022-07-23T03:32:41;100976.31;;;25.82
15544;BMP180;7873;52.230;12.856;2022-07-23T03:35:08;100985.25;;;25.83
15544;BMP180;7873;52.230;12.856;2022-07-23T03:37:35;100967.38;;;25.82
15544;BMP180;7873;52.230;12.856;2022-07-23T03:40:04;100946.19;;;25.79
15544;BMP180;7873;52.230;12.856;2022-07-23T03:42:31;100960.50;;;25.79
15544;BMP180;7873;52.230;12.856;2022-07-23T03:44:58;100955.13;;;25.79
15544;BMP180;7873;52.230;12.856;2022-07-23T03:47:25;100936.41;;;25.78
15544;BMP180;7873;52.230;12.856;2022-07-23T03:49:51;100929.34;;;25.77
15544;BMP180;7873;52.230;12.856;2022-07-23T03:52:18;100916.25;;;25.74
15544;BMP180;7873;52.230;12.856;2022-07-23T03:54:45;100914.38;;;25.74
15544;BMP180;7873;52.230;12.856;2022-07-23T03:57:13;100928.06;;;25.73
15544;BMP180;7873;52.230;12.856;2022-07-23T03:59:39;100945.72;;;25.75
15544;BMP180;7873;52.230;12.856;2022-07-23T04:02:06;100963.78;;;25.75
15544;BMP180;7873;52.230;12.856;2022-07-23T04:04:33;100975.59;;;25.74
15544;BMP180;7873;52.230;12.856;2022-07-23T04:06:59;100982.66;;;25.75
15544;BMP180;7873;52.230;12.856;2022-07-23T04:09:26;100974.38;;;25.76
15544;BMP180;7873;52.230;12.856;2022-07-23T04:11:53;100969.16;;;25.75
15544;BMP180;7873;52.230;12.856;2022-07-23T04:14:21;100984.31;;;25.76
15544;BMP180;7873;52.230;12.856;2022-07-23T04:16:47;100995.97;;;25.76
15544;BMP180;7873;52.230;12.856;2022-07-23T04:19:14;101003.38;;;25.74
15544;BMP180;7873;52.230;12.856;2022-07-23T04:21:41;101013.34;;;25.74
15544;BMP180;7873;52.230;12.856;2022-07-23T04:24:07;101004.41;;;25.73
15544;BMP180;7873;52.230;12.856;2022-07-23T04:26:34;101003.75;;;25.71
15544;BMP180;7873;52.230;12.856;2022-07-23T04:29:01;100989.47;;;25.71
15544;BMP180;7873;52.230;12.856;2022-07-23T04:31:29;100975.75;;;25.72
15544;BMP180;7873;52.230;12.856;2022-07-23T04:33:55;100992.59;;;25.74
15544;BMP180;7873;52.230;12.856;2022-07-23T04:36:22;100988.59;;;25.70
15544;BMP180;7873;52.230;12.856;2022-07-23T04:38:49;100975.97;;;25.71
15544;BMP180;7873;52.230;12.856;2022-07-23T04:41:15;100957.91;;;25.71
15544;BMP180;7873;52.230;12.856;2022-07-23T04:43:42;100949.81;;;25.71
15544;BMP180;7873;52.230;12.856;2022-07-23T04:46:09;100974.94;;;25.72
15544;BMP180;7873;52.230;12.856;2022-07-23T04:48:38;100969.72;;;25.70
15544;BMP180;7873;52.230;12.856;2022-07-23T04:51:05;100968.69;;;25.71
15544;BMP180;7873;52.230;12.856;2022-07-23T04:53:31;100962.28;;;25.72
15544;BMP180;7873;52.230;12.856;2022-07-23T04:55:58;100967.66;;;25.72
15544;BMP180;7873;52.230;12.856;2022-07-23T04:58:25;100975.75;;;25.72
15544;BMP180;7873;52.230;12.856;2022-07-23T05:00:51;100973.44;;;25.69
15544;BMP180;7873;52.230;12.856;2022-07-23T05:03:18;100971.59;;;25.70
15544;BMP180;7873;52.230;12.856;2022-07-23T05:05:46;100971.97;;;25.67
15544;BMP180;7873;52.230;12.856;2022-07-23T05:08:13;100965.75;;;25.66
15544;BMP180;7873;52.230;12.856;2022-07-23T05:10:40;100974.38;;;25.62
15544;BMP180;7873;52.230;12.856;2022-07-23T05:13:07;100981.38;;;25.71
15544;BMP180;7873;52.230;12.856;2022-07-23T05:15:34;100980.97;;;25.74
15544;BMP180;7873;52.230;12.856;2022-07-23T05:18:00;100987.41;;;25.73
15544;BMP180;7873;52.230;12.856;2022-07-23T05:20:27;101003.75;;;25.71
15544;BMP180;7873;52.230;12.856;2022-07-23T05:22:55;101009.81;;;25.73
15544;BMP180;7873;52.230;12.856;2022-07-23T05:25:22;101006.66;;;25.70
15544;BMP180;7873;52.230;12.856;2022-07-23T05:27:48;100998.75;;;25.68
15544;BMP180;7873;52.230;12.856;2022-07-23T05:30:15;100990.47;;;25.70
15544;BMP180;7873;52.230;12.856;2022-07-23T05:32:42;100973.72;;;25.74
15544;BMP180;7873;52.230;12.856;2022-07-23T05:35:08;100969.44;;;25.80
15544;BMP180;7873;52.230;12.856;2022-07-23T05:37:35;100988.44;;;25.86
15544;BMP180;7873;52.230;12.856;2022-07-23T05:40:05;100985.09;;;25.84
15544;BMP180;7873;52.230;12.856;2022-07-23T05:42:33;100980.16;;;25.88
15544;BMP180;7873;52.230;12.856;2022-07-23T05:44:59;100972.25;;;25.86
15544;BMP180;7873;52.230;12.856;2022-07-23T05:47:26;100959.56;;;25.87
15544;BMP180;7873;52.230;12.856;2022-07-23T05:49:53;100965.66;;;25.89
15544;BMP180;7873;52.230;12.856;2022-07-23T05:52:19;100970.84;;;25.90
15544;BMP180;7873;52.230;12.856;2022-07-23T05:54:46;100990.19;;;25.94
15544;BMP180;7873;52.230;12.856;2022-07-23T05:57:14;100999.56;;;25.98
15544;BMP180;7873;52.230;12.856;2022-07-23T05:59:40;101002.44;;;25.96
15544;BMP180;7873;52.230;12.856;2022-07-23T06:02:07;100998.94;;;25.96
15544;BMP180;7873;52.230;12.856;2022-07-23T06:04:34;100998.53;;;25.99
15544;BMP180;7873;52.230;12.856;2022-07-23T06:07:00;100985.06;;;25.99
15544;BMP180;7873;52.230;12.856;2022-07-23T06:09:27;100986.53;;;26.01
15544;BMP180;7873;52.230;12.856;2022-07-23T06:11:54;100990.06;;;26.02
15544;BMP180;7873;52.230;12.856;2022-07-23T06:14:22;100976.78;;;26.00
15544;BMP180;7873;52.230;12.856;2022-07-23T06:16:48;100968.69;;;26.00
15544;BMP180;7873;52.230;12.856;2022-07-23T06:19:15;100975.38;;;26.04
15544;BMP180;7873;52.230;12.856;2022-07-23T06:21:43;100942.34;;;26.02
15544;BMP180;7873;52.230;12.856;2022-07-23T06:24:09;100920.53;;;26.04
15544;BMP180;7873;52.230;12.856;2022-07-23T06:26:36;100950.03;;;26.05
15544;BMP180;7873;52.230;12.856;2022-07-23T06:29:03;100989.94;;;26.10
15544;BMP180;7873;52.230;12.856;2022-07-23T06:31:31;101011.91;;;26.07
15544;BMP180;7873;52.230;12.856;2022-07-23T06:33:57;101000.69;;;26.03
15544;BMP180;7873;52.230;12.856;2022-07-23T06:36:24;100976.31;;;25.97
15544;BMP180;7873;52.230;12.856;2022-07-23T06:38:51;100980.44;;;25.78
15544;BMP180;7873;52.230;12.856;2022-07-23T06:41:17;100983.63;;;25.53
15544;BMP180;7873;52.230;12.856;2022-07-23T06:43:44;101003.41;;;25.60
15544;BMP180;7873;52.230;12.856;2022-07-23T06:46:11;100992.09;;;25.50
15544;BMP180;7873;52.230;12.856;2022-07-23T06:48:39;100998.22;;;25.44
15544;BMP180;7873;52.230;12.856;2022-07-23T06:51:05;101014.94;;;25.54
15544;BMP180;7873;52.230;12.856;2022-07-23T06:53:32;101008.72;;;25.68
15544;BMP180;7873;52.230;12.856;2022-07-23T06:55:59;101003.47;;;25.81
15544;BMP180;7873;52.230;12.856;2022-07-23T06:58:26;100998.94;;;25.81
15544;BMP180;7873;52.230;12.856;2022-07-23T07:00:52;101000.63;;;25.68
15544;BMP180;7873;52.230;12.856;2022-07-23T07:03:19;101005.84;;;25.55
15544;BMP180;7873;52.230;12.856;2022-07-23T07:05:47;101003.78;;;25.43
15544;BMP180;7873;52.230;12.856;2022-07-23T07:08:15;100994.03;;;25.42
15544;BMP180;7873;52.230;12.856;2022-07-23T07:10:41;100985.19;;;25.48
15544;BMP180;7873;52.230;12.856;2022-07-23T07:13:08;100989.38;;;25.50
15544;BMP180;7873;52.230;12.856;2022-07-23T07:15:35;100979.25;;;25.52
15544;BMP180;7873;52.230;12.856;2022-07-23T07:18:02;100986.19;;;25.61
15544;BMP180;7873;52.230;12.856;2022-07-23T07:20:28;100988.81;;;25.69
15544;BMP180;7873;52.230;12.856;2022-07-23T07:22:56;100978.59;;;25.50
15544;BMP180;7873;52.230;12.856;2022-07-23T07:25:23;100968.56;;;25.30
15544;BMP180;7873;52.230;12.856;2022-07-23T07:27:50;100959.03;;;25.05
15544;BMP180;7873;52.230;12.856;2022-07-23T07:30:17;100948.44;;;24.89
15544;BMP180;7873;52.230;12.856;2022-07-23T07:32:43;100964.63;;;24.66
15544;BMP180;7873;52.230;12.856;2022-07-23T07:35:10;100982.91;;;24.56
15544;BMP180;7873;52.230;12.856;2022-07-23T07:37:37;100984.75;;;24.56
15544;BMP180;7873;52.230;12.856;2022-07-23T07:40:06;100981.03;;;24.57
15544;BMP180;7873;52.230;12.856;2022-07-23T07:42:33;100976.88;;;24.54
15544;BMP180;7873;52.230;12.856;2022-07-23T07:45:00;100986.78;;;24.54
15544;BMP180;7873;52.230;12.856;2022-07-23T07:47:27;100983.00;;;24.40
15544;BMP180;7873;52.230;12.856;2022-07-23T07:49:54;100966.97;;;24.47
15544;BMP180;7873;52.230;12.856;2022-07-23T07:52:21;100965.25;;;24.54
15544;BMP180;7873;52.230;12.856;2022-07-23T07:54:48;100974.38;;;24.67
15544;BMP180;7873;52.230;12.856;2022-07-23T07:57:16;100977.03;;;24.75
15544;BMP180;7873;52.230;12.856;2022-07-23T07:59:42;100972.28;;;24.77
15544;BMP180;7873;52.230;12.856;2022-07-23T08:02:09;100978.63;;;24.84
15544;BMP180;7873;52.230;12.856;2022-07-23T08:04:36;100988.56;;;24.84
15544;BMP180;7873;52.230;12.856;2022-07-23T08:07:02;100969.72;;;24.84
15544;BMP180;7873;52.230;12.856;2022-07-23T08:09:29;100976.47;;;24.80
15544;BMP180;7873;52.230;12.856;2022-07-23T08:11:56;100973.06;;;24.86
15544;BMP180;7873;52.230;12.856;2022-07-23T08:14:24;100971.19;;;24.86
15544;BMP180;7873;52.230;12.856;2022-07-23T08:16:50;100982.59;;;24.88
15544;BMP180;7873;52.230;12.856;2022-07-23T08:19:17;100975.38;;;24.89
15544;BMP180;7873;52.230;12.856;2022-07-23T08:21:44;100987.34;;;24.86
15544;BMP180;7873;52.230;12.856;2022-07-23T08:24:10;100977.78;;;24.84
15544;BMP180;7873;52.230;12.856;2022-07-23T08:26:37;100983.63;;;24.87
15544;BMP180;7873;52.230;12.856;2022-07-23T08:29:04;100986.31;;;24.87
15544;BMP180;7873;52.230;12.856;2022-07-23T08:31:32;100992.19;;;24.91
15544;BMP180;7873;52.230;12.856;2022-07-23T08:33:59;100989.22;;;24.86
15544;BMP180;7873;52.230;12.856;2022-07-23T08:36:25;100995.44;;;24.86
15544;BMP180;7873;52.230;12.856;2022-07-23T08:38:53;100998.41;;;24.91
15544;BMP180;7873;52.230;12.856;2022-07-23T08:41:20;100996.56;;;24.92
15544;BMP180;7873;52.230;12.856;2022-07-23T08:43:47;101000.72;;;24.94
15544;BMP180;7873;52.230;12.856;2022-07-23T08:46:14;101000.06;;;24.92
15544;BMP180;7873;52.230;12.856;2022-07-23T08:48:42;101003.34;;;24.88
15544;BMP180;7873;52.230;12.856;2022-07-23T08:51:09;101011.88;;;24.91
15544;BMP180;7873;52.230;12.856;2022-07-23T08:53:35;101010.56;;;24.87
15544;BMP180;7873;52.230;12.856;2022-07-23T08:56:04;101010.94;;;24.84
15544;BMP180;7873;52.230;12.856;2022-07-23T08:58:31;101006.84;;;24.88
15544;BMP180;7873;52.230;12.856;2022-07-23T09:00:59;101013.09;;;24.89
15544;BMP180;7873;52.230;12.856;2022-07-23T09:03:27;101016.44;;;24.91
15544;BMP180;7873;52.230;12.856;2022-07-23T09:05:57;101017.38;;;24.98
15544;BMP180;7873;52.230;12.856;2022-07-23T09:08:25;101029.19;;;24.97
15544;BMP180;7873;52.230;12.856;2022-07-23T09:10:54;101027.34;;;24.97
15544;BMP180;7873;52.230;12.856;2022-07-23T09:13:39;101021.09;;;24.97
15544;BMP180;7873;52.230;12.856;2022-07-23T09:16:09;101021.81;;;24.91
15544;BMP180;7873;52.230;12.856;2022-07-23T09:18:41;101024.16;;;24.94
15544;BMP180;7873;52.230;12.856;2022-07-23T09:21:29;101015.53;;;24.98
15544;BMP180;7873;52.230;12.856;2022-07-23T09:23:58;101017.56;;;24.96
15544;BMP180;7873;52.230;12.856;2022-07-23T09:26:32;101033.53;;;24.98
15544;BMP180;7873;52.230;12.856;2022-07-23T09:29:02;101028.34;;;24.96
15544;BMP180;7873;52.230;12.856;2022-07-23T09:31:34;101027.97;;;24.99
15544;BMP180;7873;52.230;12.856;2022-07-23T09:34:09;101026.31;;;24.98
15544;BMP180;7873;52.230;12.856;2022-07-23T09:36:38;101023.25;;;25.01
15544;BMP180;7873;52.230;12.856;2022-07-23T09:39:07;101026.75;;;25.02
15544;BMP180;7873;52.230;12.856;2022-07-23T09:41:35;101026.97;;;25.00
15544;BMP180;7873;52.230;12.856;2022-07-23T09:44:11;101030.03;;;24.97
15544;BMP180;7873;52.230;12.856;2022-07-23T09:46:38;101034.41;;;24.98
15544;BMP180;7873;52.230;12.856;2022-07-23T09:49:17;101024.81;;;24.96
15544;BMP180;7873;52.230;12.856;2022-07-23T09:51:50;101033.53;;;24.98
15544;BMP180;7873;52.230;12.856;2022-07-23T09:54:23;101031.69;;;24.98
15544;BMP180;7873;52.230;12.856;2022-07-23T09:56:51;101025.09;;;25.01
15544;BMP180;7873;52.230;12.856;2022-07-23T09:59:18;101023.03;;;25.03
15544;BMP180;7873;52.230;12.856;2022-07-23T10:01:49;101030.31;;;25.02
15544;BMP180;7873;52.230;12.856;2022-07-23T10:04:16;101027.97;;;24.99
15544;BMP180;7873;52.230;12.856;2022-07-23T10:06:46;101034.03;;;25.01
15544;BMP180;7873;52.230;12.856;2022-07-23T10:09:15;101032.34;;;25.00
15544;BMP180;7873;52.230;12.856;2022-07-23T10:11:44;101040.22;;;25.02
15544;BMP180;7873;52.230;12.856;2022-07-23T10:14:11;101030.19;;;24.96
15544;BMP180;7873;52.230;12.856;2022-07-23T10:16:38;101043.13;;;25.00
15544;BMP180;7873;52.230;12.856;2022-07-23T10:19:05;101038.19;;;25.04
15544;BMP180;7873;52.230;12.856;2022-07-23T10:21:38;101040.22;;;25.02
15544;BMP180;7873;52.230;12.856;2022-07-23T10:24:18;101039.22;;;25.03
15544;BMP180;7873;52.230;12.856;2022-07-23T10:26:55;101039.78;;;24.98
15544;BMP180;7873;52.230;12.856;2022-07-23T10:29:39;101044.59;;;25.03
15544;BMP180;7873;52.230;12.856;2022-07-23T10:32:17;101041.53;;;25.06
15544;BMP180;7873;52.230;12.856;2022-07-23T10:34:50;101034.47;;;25.05
15544;BMP180;7873;52.230;12.856;2022-07-23T10:37:23;101038.97;;;25.12
15544;BMP180;7873;52.230;12.856;2022-07-23T10:40:12;101044.19;;;25.14
15544;BMP180;7873;52.230;12.856;2022-07-23T10:42:39;101034.03;;;25.16
15544;BMP180;7873;52.230;12.856;2022-07-23T10:45:24;101031.16;;;25.17
15544;BMP180;7873;52.230;12.856;2022-07-23T10:47:51;101030.00;;;25.20
15544;BMP180;7873;52.230;12.856;2022-07-23T10:50:20;101037.56;;;25.16
15544;BMP180;7873;52.230;12.856;2022-07-23T10:53:09;101031.34;;;25.16
15544;BMP180;7873;52.230;12.856;2022-07-23T10:55:50;101032.78;;;25.26
15544;BMP180;7873;52.230;12.856;2022-07-23T10:58:23;101026.00;;;25.30
15544;BMP180;7873;52.230;12.856;2022-07-23T11:00:50;101030.66;;;25.36
15544;BMP180;7873;52.230;12.856;2022-07-23T11:03:31;101028.34;;;25.33
15544;BMP180;7873;52.230;12.856;2022-07-23T11:06:04;101024.81;;;25.33
15544;BMP180;7873;52.230;12.856;2022-07-23T11:08:31;101025.47;;;25.35
15544;BMP180;7873;52.230;12.856;2022-07-23T11:11:09;101035.97;;;25.30
15544;BMP180;7873;52.230;12.856;2022-07-23T11:13:42;101030.00;;;25.34
15544;BMP180;7873;52.230;12.856;2022-07-23T11:16:25;101030.28;;;25.39
15544;BMP180;7873;52.230;12.856;2022-07-23T11:18:55;101035.66;;;25.39
15544;BMP180;7873;52.230;12.856;2022-07-23T11:21:44;101031.59;;;25.43
15544;BMP180;7873;52.230;12.856;2022-07-23T11:24:12;101031.22;;;25.46
15544;BMP180;7873;52.230;12.856;2022-07-23T11:26:53;101027.25;;;25.42
15544;BMP180;7873;52.230;12.856;2022-07-23T11:29:48;101023.84;;;25.40
15544;BMP180;7873;52.230;12.856;2022-07-23T11:32:37;101023.22;;;25.38
15544;BMP180;7873;52.230;12.856;2022-07-23T11:35:26;101031.88;;;25.34
15544;BMP180;7873;52.230;12.856;2022-07-23T11:37:54;101027.88;;;25.30
15544;BMP180;7873;52.230;12.856;2022-07-23T11:40:24;101024.34;;;25.29
15544;BMP180;7873;52.230;12.856;2022-07-23T11:42:55;101029.91;;;25.28
15544;BMP180;7873;52.230;12.856;2022-07-23T11:45:23;101034.47;;;25.27
15544;BMP180;7873;52.230;12.856;2022-07-23T11:47:50;101019.13;;;25.28
15544;BMP180;7873;52.230;12.856;2022-07-23T11:50:16;101021.25;;;25.32
15544;BMP180;7873;52.230;12.856;2022-07-23T11:52:43;101018.41;;;25.34
15544;BMP180;7873;52.230;12.856;2022-07-23T11:55:11;101020.91;;;25.35
15544;BMP180;7873;52.230;12.856;2022-07-23T11:57:40;101016.91;;;25.31
15544;BMP180;7873;52.230;12.856;2022-07-23T12:00:10;101011.13;;;25.34
15544;BMP180;7873;52.230;12.856;2022-07-23T12:02:38;101011.50;;;25.31
15544;BMP180;7873;52.230;12.856;2022-07-23T12:05:05;101010.69;;;25.31
15544;BMP180;7873;52.230;12.856;2022-07-23T12:07:36;101015.88;;;25.32
15544;BMP180;7873;52.230;12.856;2022-07-23T12:10:08;101013.00;;;25.34
15544;BMP180;7873;52.230;12.856;2022-07-23T12:12:36;101016.78;;;25.39
15544;BMP180;7873;52.230;12.856;2022-07-23T12:15:05;101013.56;;;25.44
15544;BMP180;7873;52.230;12.856;2022-07-23T12:17:35;101016.91;;;25.46
15544;BMP180;7873;52.230;12.856;2022-07-23T12:20:03;101018.78;;;25.45
15544;BMP180;7873;52.230;12.856;2022-07-23T12:22:36;101015.88;;;25.47
15544;BMP180;7873;52.230;12.856;2022-07-23T12:25:05;101009.19;;;25.57
15544;BMP180;7873;52.230;12.856;2022-07-23T12:27:32;101010.47;;;25.61
15544;BMP180;7873;52.230;12.856;2022-07-23T12:29:59;101007.41;;;25.64
15544;BMP180;7873;52.230;12.856;2022-07-23T12:32:27;100997.63;;;25.63
15544;BMP180;7873;52.230;12.856;2022-07-23T12:35:06;100998.31;;;25.65
15544;BMP180;7873;52.230;12.856;2022-07-23T12:37:35;100993.34;;;25.68
15544;BMP180;7873;52.230;12.856;2022-07-23T12:40:22;100995.88;;;25.70
15544;BMP180;7873;52.230;12.856;2022-07-23T12:42:51;100999.00;;;25.73
15544;BMP180;7873;52.230;12.856;2022-07-23T12:45:18;101005.72;;;25.77
15544;BMP180;7873;52.230;12.856;2022-07-23T12:47:59;100995.75;;;25.78
15544;BMP180;7873;52.230;12.856;2022-07-23T12:50:43;100996.41;;;25.80
15544;BMP180;7873;52.230;12.856;2022-07-23T12:53:14;100995.03;;;25.84
15544;BMP180;7873;52.230;12.856;2022-07-23T12:55:42;100995.13;;;25.76
15544;BMP180;7873;52.230;12.856;2022-07-23T12:58:12;100998.94;;;25.81
15544;BMP180;7873;52.230;12.856;2022-07-23T13:01:06;100992.16;;;25.85
15544;BMP180;7873;52.230;12.856;2022-07-23T13:03:35;100997.91;;;25.82
15544;BMP180;7873;52.230;12.856;2022-07-23T13:06:06;100988.69;;;25.77
15544;BMP180;7873;52.230;12.856;2022-07-23T13:08:34;100992.88;;;25.79
15544;BMP180;7873;52.230;12.856;2022-07-23T13:11:01;100993.06;;;25.78
15544;BMP180;7873;52.230;12.856;2022-07-23T13:13:29;100988.06;;;25.75
15544;BMP180;7873;52.230;12.856;2022-07-23T13:15:57;100984.78;;;25.79
15544;BMP180;7873;52.230;12.856;2022-07-23T13:18:25;100993.28;;;25.76
15544;BMP180;7873;52.230;12.856;2022-07-23T13:20:52;100977.91;;;25.77
15544;BMP180;7873;52.230;12.856;2022-07-23T13:23:21;100980.22;;;25.80
15544;BMP180;7873;52.230;12.856;2022-07-23T13:25:48;100976.16;;;25.84
15544;BMP180;7873;52.230;12.856;2022-07-23T13:28:16;100980.44;;;25.78
15544;BMP180;7873;52.230;12.856;2022-07-23T13:30:43;100970.19;;;25.74
15544;BMP180;7873;52.230;12.856;2022-07-23T13:33:11;100974.19;;;25.78
15544;BMP180;7873;52.230;12.856;2022-07-23T13:35:38;100984.31;;;25.76
15544;BMP180;7873;52.230;12.856;2022-07-23T13:38:06;100976.88;;;25.78
15544;BMP180;7873;52.230;12.856;2022-07-23T13:40:36;100977.91;;;25.77
15544;BMP180;7873;52.230;12.856;2022-07-23T13:43:05;100974.38;;;25.76
15544;BMP180;7873;52.230;12.856;2022-07-23T13:45:33;100986.25;;;25.82
15544;BMP180;7873;52.230;12.856;2022-07-23T13:48:00;100982.00;;;25.87
15544;BMP180;7873;52.230;12.856;2022-07-23T13:50:27;100975.75;;;25.87
15544;BMP180;7873;52.230;12.856;2022-07-23T13:52:54;100981.84;;;25.89
15544;BMP180;7873;52.230;12.856;2022-07-23T13:55:21;100979.13;;;25.89
15544;BMP180;7873;52.230;12.856;2022-07-23T13:57:49;100973.53;;;25.90
15544;BMP180;7873;52.230;12.856;2022-07-23T14:00:16;100980.34;;;25.86
15544;BMP180;7873;52.230;12.856;2022-07-23T14:02:43;100976.50;;;25.81
15544;BMP180;7873;52.230;12.856;2022-07-23T14:05:10;100985.81;;;25.78
15544;BMP180;7873;52.230;12.856;2022-07-23T14:07:38;100973.16;;;25.79
15544;BMP180;7873;52.230;12.856;2022-07-23T14:10:07;100976.50;;;25.81